sensor_id;sensor_type;location;lat;lon;timestamp;temperature;humidity
9975;DHT22;5028;50.974;4.968;2023-04-24T00:00:04;9.30;99.90
9975;DHT22;5028;50.974;4.968;2023-04-24T00:02:37;9.30;99.90
9975;DHT22;5028;50.974;4.968;2023-04-24T00:05:07;9.30;99.90
9975;DHT22;5028;50.974;4.968;2023-04-24T00:07:36;9.30;99.90
9975;DHT22;5028;50.974;4.968;2023-04-24T00:10:06;9.30;99.90
9975;DHT22;5028;50.974;4.968;2023-04-24T00:12:36;9.30;99.90
9975;DHT22;5028;50.974;4.968;2023-04-24T00:15:06;9.30;99.90
9975;DHT22;5028;50.974;4.968;2023-04-24T00:17:35;9.30;99.90
9975;DHT22;5028;50.974;4.968;2023-04-24T00:20:05;9.30;99.90
9975;DHT22;5028;50.974;4.968;2023-04-24T00:22:34;9.30;99.90
9975;DHT22;5028;50.974;4.968;2023-04-24T00:25:03;9.30;99.90
9975;DHT22;5028;50.974;4.968;2023-04-24T00:27:33;9.30;99.90
9975;DHT22;5028;50.974;4.968;2023-04-24T00:30:07;9.30;99.90
9975;DHT22;5028;50.974;4.968;2023-04-24T00:32:35;9.30;99.90
9975;DHT22;5028;50.974;4.968;2023-04-24T00:35:05;9.30;99.90
9975;DHT22;5028;50.974;4.968;2023-04-24T00:37:34;9.20;99.90
9975;DHT22;5028;50.974;4.968;2023-04-24T00:40:03;9.30;99.90
9975;DHT22;5028;50.974;4.968;2023-04-24T00:42:33;9.30;99.90
9975;DHT22;5028;50.974;4.968;2023-04-24T00:45:02;9.20;99.90
9975;DHT22;5028;50.974;4.968;2023-04-24T00:47:33;9.20;99.90
9975;DHT22;5028;50.974;4.968;2023-04-24T00:50:03;9.20;99.90
9975;DHT22;5028;50.974;4.968;2023-04-24T00:52:32;9.20;99.90
9975;DHT22;5028;50.974;4.968;2023-04-24T00:55:01;9.20;99.90
9975;DHT22;5028;50.974;4.968;2023-04-24T00:57:30;9.20;99.90
9975;DHT22;5028;50.974;4.968;2023-04-24T00:59:59;9.20;99.90
9975;DHT22;5028;50.974;4.968;2023-04-24T01:02:27;9.30;99.90
9975;DHT22;5028;50.974;4.968;2023-04-24T01:04:58;9.30;99.90
9975;DHT22;5028;50.974;4.968;2023-04-24T01:07:27;9.20;99.90
9975;DHT22;5028;50.974;4.968;2023-04-24T01:09:56;9.20;99.90
9975;DHT22;5028;50.974;4.968;2023-04-24T01:12:27;9.20;99.90
9975;DHT22;5028;50.974;4.968;2023-04-24T01:14:56;9.20;99.90
9975;DHT22;5028;50.974;4.968;2023-04-24T01:17:25;9.20;99.90
9975;DHT22;5028;50.974;4.968;2023-04-24T01:19:53;9.20;99.90
9975;DHT22;5028;50.974;4.968;2023-04-24T01:22:25;9.20;99.90
9975;DHT22;5028;50.974;4.968;2023-04-24T01:24:54;9.20;99.90
9975;DHT22;5028;50.974;4.968;2023-04-24T01:27:22;9.20;99.90
9975;DHT22;5028;50.974;4.968;2023-04-24T01:29:51;9.10;99.90
9975;DHT22;5028;50.974;4.968;2023-04-24T01:32:20;9.10;99.90
9975;DHT22;5028;50.974;4.968;2023-04-24T01:34:49;9.10;99.90
9975;DHT22;5028;50.974;4.968;2023-04-24T01:37:18;9.10;99.90
9975;DHT22;5028;50.974;4.968;2023-04-24T01:39:48;9.10;99.90
9975;DHT22;5028;50.974;4.968;2023-04-24T01:42:17;9.10;99.90
9975;DHT22;5028;50.974;4.968;2023-04-24T01:44:47;9.10;99.90
9975;DHT22;5028;50.974;4.968;2023-04-24T01:47:16;9.10;99.90
9975;DHT22;5028;50.974;4.968;2023-04-24T01:49:45;9.10;99.90
9975;DHT22;5028;50.974;4.968;2023-04-24T01:52:16;9.10;99.90
9975;DHT22;5028;50.974;4.968;2023-04-24T01:54:45;9.10;99.90
9975;DHT22;5028;50.974;4.968;2023-04-24T01:57:16;9.10;99.90
9975;DHT22;5028;50.974;4.968;2023-04-24T01:59:44;9.10;99.90
9975;DHT22;5028;50.974;4.968;2023-04-24T02:02:13;9.10;99.90
9975;DHT22;5028;50.974;4.968;2023-04-24T02:04:42;9.10;99.90
9975;DHT22;5028;50.974;4.968;2023-04-24T02:07:11;9.10;99.90
9975;DHT22;5028;50.974;4.968;2023-04-24T02:09:39;9.00;99.90
9975;DHT22;5028;50.974;4.968;2023-04-24T02:12:08;9.00;99.90
9975;DHT22;5028;50.974;4.968;2023-04-24T02:14:38;9.00;99.90
9975;DHT22;5028;50.974;4.968;2023-04-24T02:17:07;9.00;99.90
9975;DHT22;5028;50.974;4.968;2023-04-24T02:19:35;8.90;99.90
9975;DHT22;5028;50.974;4.968;2023-04-24T02:22:05;8.90;99.90
9975;DHT22;5028;50.974;4.968;2023-04-24T02:24:33;8.90;99.90
9975;DHT22;5028;50.974;4.968;2023-04-24T02:27:02;8.90;99.90
9975;DHT22;5028;50.974;4.968;2023-04-24T02:29:33;8.80;99.90
9975;DHT22;5028;50.974;4.968;2023-04-24T02:32:03;8.80;99.90
9975;DHT22;5028;50.974;4.968;2023-04-24T02:34:32;8.70;99.90
9975;DHT22;5028;50.974;4.968;2023-04-24T02:37:01;8.60;99.90
9975;DHT22;5028;50.974;4.968;2023-04-24T02:39:29;8.60;99.90
9975;DHT22;5028;50.974;4.968;2023-04-24T02:41:58;8.60;99.90
9975;DHT22;5028;50.974;4.968;2023-04-24T02:44:27;8.60;99.90
9975;DHT22;5028;50.974;4.968;2023-04-24T02:46:56;8.50;99.90
9975;DHT22;5028;50.974;4.968;2023-04-24T02:49:26;8.50;99.90
9975;DHT22;5028;50.974;4.968;2023-04-24T02:51:54;8.50;99.90
9975;DHT22;5028;50.974;4.968;2023-04-24T02:54:23;8.50;99.90
9975;DHT22;5028;50.974;4.968;2023-04-24T02:56:51;8.50;99.90
9975;DHT22;5028;50.974;4.968;2023-04-24T02:59:20;8.50;99.90
9975;DHT22;5028;50.974;4.968;2023-04-24T03:01:49;8.40;99.90
9975;DHT22;5028;50.974;4.968;2023-04-24T03:04:18;8.40;99.90
9975;DHT22;5028;50.974;4.968;2023-04-24T03:06:51;8.40;99.90
9975;DHT22;5028;50.974;4.968;2023-04-24T03:09:21;8.30;99.90
9975;DHT22;5028;50.974;4.968;2023-04-24T03:11:50;8.30;99.90
9975;DHT22;5028;50.974;4.968;2023-04-24T03:14:18;8.30;99.90
9975;DHT22;5028;50.974;4.968;2023-04-24T03:16:47;8.20;99.90
9975;DHT22;5028;50.974;4.968;2023-04-24T03:19:16;8.30;99.90
9975;DHT22;5028;50.974;4.968;2023-04-24T03:21:44;8.30;99.90
9975;DHT22;5028;50.974;4.968;2023-04-24T03:24:15;8.30;99.90
9975;DHT22;5028;50.974;4.968;2023-04-24T03:26:44;8.30;99.90
9975;DHT22;5028;50.974;4.968;2023-04-24T03:29:12;8.30;99.90
9975;DHT22;5028;50.974;4.968;2023-04-24T03:31:40;8.30;99.90
9975;DHT22;5028;50.974;4.968;2023-04-24T03:34:09;8.20;99.90
9975;DHT22;5028;50.974;4.968;2023-04-24T03:36:38;8.30;99.90
9975;DHT22;5028;50.974;4.968;2023-04-24T03:39:06;8.30;99.90
9975;DHT22;5028;50.974;4.968;2023-04-24T03:41:39;8.30;99.90
9975;DHT22;5028;50.974;4.968;2023-04-24T03:44:08;8.30;99.90
9975;DHT22;5028;50.974;4.968;2023-04-24T03:46:36;8.30;99.90
9975;DHT22;5028;50.974;4.968;2023-04-24T03:49:05;8.30;99.90
9975;DHT22;5028;50.974;4.968;2023-04-24T03:51:34;8.20;99.90
9975;DHT22;5028;50.974;4.968;2023-04-24T03:54:03;8.20;99.90
9975;DHT22;5028;50.974;4.968;2023-04-24T03:56:32;8.20;99.90
9975;DHT22;5028;50.974;4.968;2023-04-24T03:59:03;8.20;99.90
9975;DHT22;5028;50.974;4.968;2023-04-24T04:01:32;8.20;99.90
9975;DHT22;5028;50.974;4.968;2023-04-24T04:04:03;8.20;99.90
9975;DHT22;5028;50.974;4.968;2023-04-24T04:06:32;8.10;99.90
9975;DHT22;5028;50.974;4.968;2023-04-24T04:09:01;8.10;99.90
9975;DHT22;5028;50.974;4.968;2023-04-24T04:11:30;8.10;99.90
9975;DHT22;5028;50.974;4.968;2023-04-24T04:14:04;8.10;99.90
9975;DHT22;5028;50.974;4.968;2023-04-24T04:16:32;8.10;99.90
9975;DHT22;5028;50.974;4.968;2023-04-24T04:19:03;8.00;99.90
9975;DHT22;5028;50.974;4.968;2023-04-24T04:21:32;8.00;99.90
9975;DHT22;5028;50.974;4.968;2023-04-24T04:24:01;8.00;99.90
9975;DHT22;5028;50.974;4.968;2023-04-24T04:26:30;8.00;99.90
9975;DHT22;5028;50.974;4.968;2023-04-24T04:28:59;8.00;99.90
9975;DHT22;5028;50.974;4.968;2023-04-24T04:31:30;8.00;99.90
9975;DHT22;5028;50.974;4.968;2023-04-24T04:33:59;8.00;99.90
9975;DHT22;5028;50.974;4.968;2023-04-24T04:36:28;8.00;99.90
9975;DHT22;5028;50.974;4.968;2023-04-24T04:38:58;8.00;99.90
9975;DHT22;5028;50.974;4.968;2023-04-24T04:41:27;8.00;99.90
9975;DHT22;5028;50.974;4.968;2023-04-24T04:43:56;7.90;99.90
9975;DHT22;5028;50.974;4.968;2023-04-24T04:46:25;7.90;99.90
9975;DHT22;5028;50.974;4.968;2023-04-24T04:48:56;7.90;99.90
9975;DHT22;5028;50.974;4.968;2023-04-24T04:51:25;8.00;99.90
9975;DHT22;5028;50.974;4.968;2023-04-24T04:53:54;8.00;99.90
9975;DHT22;5028;50.974;4.968;2023-04-24T04:56:22;8.00;99.90
9975;DHT22;5028;50.974;4.968;2023-04-24T04:58:53;8.00;99.90
9975;DHT22;5028;50.974;4.968;2023-04-24T05:01:21;8.00;99.90
9975;DHT22;5028;50.974;4.968;2023-04-24T05:03:51;8.10;99.90
9975;DHT22;5028;50.974;4.968;2023-04-24T05:06:21;8.10;99.90
9975;DHT22;5028;50.974;4.968;2023-04-24T05:08:50;8.10;99.90
9975;DHT22;5028;50.974;4.968;2023-04-24T05:11:24;8.10;99.90
9975;DHT22;5028;50.974;4.968;2023-04-24T05:13:53;8.00;99.90
9975;DHT22;5028;50.974;4.968;2023-04-24T05:16:22;8.00;99.90
9975;DHT22;5028;50.974;4.968;2023-04-24T05:18:50;8.00;99.90
9975;DHT22;5028;50.974;4.968;2023-04-24T05:21:20;7.90;99.90
9975;DHT22;5028;50.974;4.968;2023-04-24T05:23:49;7.90;99.90
9975;DHT22;5028;50.974;4.968;2023-04-24T05:26:18;7.90;99.90
9975;DHT22;5028;50.974;4.968;2023-04-24T05:28:47;7.90;99.90
9975;DHT22;5028;50.974;4.968;2023-04-24T05:31:15;7.90;99.90
9975;DHT22;5028;50.974;4.968;2023-04-24T05:33:44;7.80;99.90
9975;DHT22;5028;50.974;4.968;2023-04-24T05:36:13;7.80;99.90
9975;DHT22;5028;50.974;4.968;2023-04-24T05:38:44;7.90;99.90
9975;DHT22;5028;50.974;4.968;2023-04-24T05:41:12;7.90;99.90
9975;DHT22;5028;50.974;4.968;2023-04-24T05:43:41;7.90;99.90
9975;DHT22;5028;50.974;4.968;2023-04-24T05:46:11;7.80;99.90
9975;DHT22;5028;50.974;4.968;2023-04-24T05:48:40;7.80;99.90
9975;DHT22;5028;50.974;4.968;2023-04-24T05:51:09;7.80;99.90
9975;DHT22;5028;50.974;4.968;2023-04-24T05:53:38;7.80;99.90
9975;DHT22;5028;50.974;4.968;2023-04-24T05:56:09;7.80;99.90
9975;DHT22;5028;50.974;4.968;2023-04-24T05:58:38;7.80;99.90
9975;DHT22;5028;50.974;4.968;2023-04-24T06:01:06;7.80;99.90
9975;DHT22;5028;50.974;4.968;2023-04-24T06:03:35;7.80;99.90
9975;DHT22;5028;50.974;4.968;2023-04-24T06:06:05;7.80;99.90
9975;DHT22;5028;50.974;4.968;2023-04-24T06:08:34;7.80;99.90
9975;DHT22;5028;50.974;4.968;2023-04-24T06:11:03;7.80;99.90
9975;DHT22;5028;50.974;4.968;2023-04-24T06:13:33;7.80;99.90
9975;DHT22;5028;50.974;4.968;2023-04-24T06:16:01;7.80;99.90
9975;DHT22;5028;50.974;4.968;2023-04-24T06:18:30;7.70;99.90
9975;DHT22;5028;50.974;4.968;2023-04-24T06:20:58;7.70;99.90
9975;DHT22;5028;50.974;4.968;2023-04-24T06:23:27;7.70;99.90
9975;DHT22;5028;50.974;4.968;2023-04-24T06:25:56;7.70;99.90
9975;DHT22;5028;50.974;4.968;2023-04-24T06:28:24;7.70;99.90
9975;DHT22;5028;50.974;4.968;2023-04-24T06:30:55;7.80;99.90
9975;DHT22;5028;50.974;4.968;2023-04-24T06:33:23;7.80;99.90
9975;DHT22;5028;50.974;4.968;2023-04-24T06:35:52;7.80;99.90
9975;DHT22;5028;50.974;4.968;2023-04-24T06:38:20;7.80;99.90
9975;DHT22;5028;50.974;4.968;2023-04-24T06:40:49;7.80;99.90
9975;DHT22;5028;50.974;4.968;2023-04-24T06:43:18;7.80;99.90
9975;DHT22;5028;50.974;4.968;2023-04-24T06:45:47;7.80;99.90
9975;DHT22;5028;50.974;4.968;2023-04-24T06:48:17;7.80;99.90
9975;DHT22;5028;50.974;4.968;2023-04-24T06:50:46;7.80;99.90
9975;DHT22;5028;50.974;4.968;2023-04-24T06:53:15;7.90;99.90
9975;DHT22;5028;50.974;4.968;2023-04-24T06:55:44;7.80;99.90
9975;DHT22;5028;50.974;4.968;2023-04-24T06:58:13;7.90;99.90
9975;DHT22;5028;50.974;4.968;2023-04-24T07:00:41;7.90;99.90
9975;DHT22;5028;50.974;4.968;2023-04-24T07:03:10;8.00;99.90
9975;DHT22;5028;50.974;4.968;2023-04-24T07:05:41;8.00;99.90
9975;DHT22;5028;50.974;4.968;2023-04-24T07:08:09;8.00;99.90
9975;DHT22;5028;50.974;4.968;2023-04-24T07:10:39;8.00;99.90
9975;DHT22;5028;50.974;4.968;2023-04-24T07:13:08;8.00;99.90
9975;DHT22;5028;50.974;4.968;2023-04-24T07:15:37;8.00;99.90
9975;DHT22;5028;50.974;4.968;2023-04-24T07:18:07;8.00;99.90
9975;DHT22;5028;50.974;4.968;2023-04-24T07:20:36;8.00;99.90
9975;DHT22;5028;50.974;4.968;2023-04-24T07:23:06;8.00;99.90
9975;DHT22;5028;50.974;4.968;2023-04-24T07:25:34;8.00;99.90
9975;DHT22;5028;50.974;4.968;2023-04-24T07:28:03;8.00;99.90
9975;DHT22;5028;50.974;4.968;2023-04-24T07:30:32;8.00;99.90
9975;DHT22;5028;50.974;4.968;2023-04-24T07:33:01;8.00;99.90
9975;DHT22;5028;50.974;4.968;2023-04-24T07:35:29;8.00;99.90
9975;DHT22;5028;50.974;4.968;2023-04-24T07:37:58;8.00;99.90
9975;DHT22;5028;50.974;4.968;2023-04-24T07:40:29;8.00;99.90
9975;DHT22;5028;50.974;4.968;2023-04-24T07:42:57;8.10;99.90
9975;DHT22;5028;50.974;4.968;2023-04-24T07:45:26;8.10;99.90
9975;DHT22;5028;50.974;4.968;2023-04-24T07:47:55;8.10;99.90
9975;DHT22;5028;50.974;4.968;2023-04-24T07:50:24;8.10;99.90
9975;DHT22;5028;50.974;4.968;2023-04-24T07:52:52;8.20;99.90
9975;DHT22;5028;50.974;4.968;2023-04-24T07:55:22;8.10;99.90
9975;DHT22;5028;50.974;4.968;2023-04-24T07:57:55;8.10;99.90
9975;DHT22;5028;50.974;4.968;2023-04-24T08:00:24;8.20;99.90
9975;DHT22;5028;50.974;4.968;2023-04-24T08:02:53;8.20;99.90
9975;DHT22;5028;50.974;4.968;2023-04-24T08:05:21;8.40;99.90
9975;DHT22;5028;50.974;4.968;2023-04-24T08:07:52;8.50;99.90
9975;DHT22;5028;50.974;4.968;2023-04-24T08:10:21;8.50;99.90
9975;DHT22;5028;50.974;4.968;2023-04-24T08:12:50;8.60;99.90
9975;DHT22;5028;50.974;4.968;2023-04-24T08:15:21;8.60;99.90
9975;DHT22;5028;50.974;4.968;2023-04-24T08:17:49;8.70;99.90
9975;DHT22;5028;50.974;4.968;2023-04-24T08:20:18;8.70;99.90
9975;DHT22;5028;50.974;4.968;2023-04-24T08:22:46;8.80;99.90
9975;DHT22;5028;50.974;4.968;2023-04-24T08:25:15;8.80;99.90
9975;DHT22;5028;50.974;4.968;2023-04-24T08:27:44;8.80;99.90
9975;DHT22;5028;50.974;4.968;2023-04-24T08:30:13;8.80;99.90
9975;DHT22;5028;50.974;4.968;2023-04-24T08:32:43;8.80;99.90
9975;DHT22;5028;50.974;4.968;2023-04-24T08:35:12;8.80;99.90
9975;DHT22;5028;50.974;4.968;2023-04-24T08:37:41;8.70;99.90
9975;DHT22;5028;50.974;4.968;2023-04-24T08:40:13;8.70;99.90
9975;DHT22;5028;50.974;4.968;2023-04-24T08:42:43;8.70;99.90
9975;DHT22;5028;50.974;4.968;2023-04-24T08:45:12;8.70;99.90
9975;DHT22;5028;50.974;4.968;2023-04-24T08:47:43;8.60;99.90
9975;DHT22;5028;50.974;4.968;2023-04-24T08:50:12;8.70;99.90
9975;DHT22;5028;50.974;4.968;2023-04-24T08:52:42;8.80;99.90
9975;DHT22;5028;50.974;4.968;2023-04-24T08:55:11;8.80;99.90
9975;DHT22;5028;50.974;4.968;2023-04-24T08:57:39;9.00;99.90
9975;DHT22;5028;50.974;4.968;2023-04-24T09:00:09;9.10;99.90
9975;DHT22;5028;50.974;4.968;2023-04-24T09:02:42;9.20;99.90
9975;DHT22;5028;50.974;4.968;2023-04-24T09:05:13;9.20;99.90
9975;DHT22;5028;50.974;4.968;2023-04-24T09:07:43;9.10;99.90
9975;DHT22;5028;50.974;4.968;2023-04-24T09:10:13;9.20;99.90
9975;DHT22;5028;50.974;4.968;2023-04-24T09:12:42;9.40;99.90
9975;DHT22;5028;50.974;4.968;2023-04-24T09:15:13;9.40;99.90
9975;DHT22;5028;50.974;4.968;2023-04-24T09:17:43;9.60;99.90
9975;DHT22;5028;50.974;4.968;2023-04-24T09:20:13;9.70;99.90
9975;DHT22;5028;50.974;4.968;2023-04-24T09:22:42;9.90;99.90
9975;DHT22;5028;50.974;4.968;2023-04-24T09:25:11;10.00;99.90
9975;DHT22;5028;50.974;4.968;2023-04-24T09:27:45;10.00;99.90
9975;DHT22;5028;50.974;4.968;2023-04-24T09:30:21;10.00;99.90
9975;DHT22;5028;50.974;4.968;2023-04-24T09:33:09;10.00;99.90
9975;DHT22;5028;50.974;4.968;2023-04-24T09:35:40;10.00;99.90
9975;DHT22;5028;50.974;4.968;2023-04-24T09:38:10;10.10;99.90
9975;DHT22;5028;50.974;4.968;2023-04-24T09:40:39;10.10;99.90
9975;DHT22;5028;50.974;4.968;2023-04-24T09:43:10;10.00;99.90
9975;DHT22;5028;50.974;4.968;2023-04-24T09:45:40;9.90;99.90
9975;DHT22;5028;50.974;4.968;2023-04-24T09:48:10;10.00;99.90
9975;DHT22;5028;50.974;4.968;2023-04-24T09:50:39;10.30;99.90
9975;DHT22;5028;50.974;4.968;2023-04-24T09:53:07;10.50;99.90
9975;DHT22;5028;50.974;4.968;2023-04-24T09:55:39;10.30;99.90
9975;DHT22;5028;50.974;4.968;2023-04-24T09:58:08;10.10;99.90
9975;DHT22;5028;50.974;4.968;2023-04-24T10:00:38;10.00;99.90
9975;DHT22;5028;50.974;4.968;2023-04-24T10:03:07;10.00;99.90
9975;DHT22;5028;50.974;4.968;2023-04-24T10:05:39;10.10;99.90
9975;DHT22;5028;50.974;4.968;2023-04-24T10:08:11;10.20;99.90
9975;DHT22;5028;50.974;4.968;2023-04-24T10:10:44;10.70;99.90
9975;DHT22;5028;50.974;4.968;2023-04-24T10:13:15;10.90;99.90
9975;DHT22;5028;50.974;4.968;2023-04-24T10:15:44;10.90;99.90
9975;DHT22;5028;50.974;4.968;2023-04-24T10:18:16;10.90;99.90
9975;DHT22;5028;50.974;4.968;2023-04-24T10:20:47;10.90;99.90
9975;DHT22;5028;50.974;4.968;2023-04-24T10:23:16;10.70;99.90
9975;DHT22;5028;50.974;4.968;2023-04-24T10:25:46;10.70;99.90
9975;DHT22;5028;50.974;4.968;2023-04-24T10:28:15;10.70;99.90
9975;DHT22;5028;50.974;4.968;2023-04-24T10:30:45;10.70;99.90
9975;DHT22;5028;50.974;4.968;2023-04-24T10:33:14;10.70;99.90
9975;DHT22;5028;50.974;4.968;2023-04-24T10:35:49;10.80;99.90
9975;DHT22;5028;50.974;4.968;2023-04-24T10:38:23;10.80;99.90
9975;DHT22;5028;50.974;4.968;2023-04-24T10:40:57;10.80;99.90
9975;DHT22;5028;50.974;4.968;2023-04-24T10:43:35;10.70;99.90
9975;DHT22;5028;50.974;4.968;2023-04-24T10:46:05;10.60;99.90
9975;DHT22;5028;50.974;4.968;2023-04-24T10:48:35;10.50;99.90
9975;DHT22;5028;50.974;4.968;2023-04-24T10:51:11;10.40;99.90
9975;DHT22;5028;50.974;4.968;2023-04-24T10:53:40;10.40;99.90
9975;DHT22;5028;50.974;4.968;2023-04-24T10:56:09;10.40;99.90
9975;DHT22;5028;50.974;4.968;2023-04-24T10:58:40;10.50;99.90
9975;DHT22;5028;50.974;4.968;2023-04-24T11:01:23;10.70;99.90
9975;DHT22;5028;50.974;4.968;2023-04-24T11:03:55;10.80;99.90
9975;DHT22;5028;50.974;4.968;2023-04-24T11:06:33;10.90;99.90
9975;DHT22;5028;50.974;4.968;2023-04-24T11:09:04;10.90;99.90
9975;DHT22;5028;50.974;4.968;2023-04-24T11:11:34;10.90;99.90
9975;DHT22;5028;50.974;4.968;2023-04-24T11:14:05;11.00;99.90
9975;DHT22;5028;50.974;4.968;2023-04-24T11:16:42;11.00;99.90
9975;DHT22;5028;50.974;4.968;2023-04-24T11:19:21;11.30;99.90
9975;DHT22;5028;50.974;4.968;2023-04-24T11:21:58;11.40;99.90
9975;DHT22;5028;50.974;4.968;2023-04-24T11:24:40;11.40;99.90
9975;DHT22;5028;50.974;4.968;2023-04-24T11:27:12;11.30;99.90
9975;DHT22;5028;50.974;4.968;2023-04-24T11:29:44;11.30;99.90
9975;DHT22;5028;50.974;4.968;2023-04-24T11:32:24;11.30;99.90
9975;DHT22;5028;50.974;4.968;2023-04-24T11:34:55;11.50;99.90
9975;DHT22;5028;50.974;4.968;2023-04-24T11:37:27;11.70;99.90
9975;DHT22;5028;50.974;4.968;2023-04-24T11:39:57;11.80;99.90
9975;DHT22;5028;50.974;4.968;2023-04-24T11:42:28;12.10;99.90
9975;DHT22;5028;50.974;4.968;2023-04-24T11:44:58;12.80;99.90
9975;DHT22;5028;50.974;4.968;2023-04-24T11:47:30;13.10;99.90
9975;DHT22;5028;50.974;4.968;2023-04-24T11:50:01;13.30;99.90
9975;DHT22;5028;50.974;4.968;2023-04-24T11:52:36;13.10;99.90
9975;DHT22;5028;50.974;4.968;2023-04-24T11:55:07;12.70;99.90
9975;DHT22;5028;50.974;4.968;2023-04-24T11:57:36;12.40;99.90
9975;DHT22;5028;50.974;4.968;2023-04-24T12:00:05;12.20;99.90
9975;DHT22;5028;50.974;4.968;2023-04-24T12:02:35;12.10;99.90
9975;DHT22;5028;50.974;4.968;2023-04-24T12:05:06;12.00;99.90
9975;DHT22;5028;50.974;4.968;2023-04-24T12:07:41;11.90;99.90
9975;DHT22;5028;50.974;4.968;2023-04-24T12:10:11;11.80;99.90
9975;DHT22;5028;50.974;4.968;2023-04-24T12:12:41;11.80;99.90
9975;DHT22;5028;50.974;4.968;2023-04-24T12:15:12;11.90;99.90
9975;DHT22;5028;50.974;4.968;2023-04-24T12:17:42;11.90;99.90
9975;DHT22;5028;50.974;4.968;2023-04-24T12:20:12;11.80;99.90
9975;DHT22;5028;50.974;4.968;2023-04-24T12:22:47;11.70;99.90
9975;DHT22;5028;50.974;4.968;2023-04-24T12:25:18;11.70;99.90
9975;DHT22;5028;50.974;4.968;2023-04-24T12:27:53;11.70;99.90
9975;DHT22;5028;50.974;4.968;2023-04-24T12:30:26;11.70;99.90
9975;DHT22;5028;50.974;4.968;2023-04-24T12:32:58;11.60;99.90
9975;DHT22;5028;50.974;4.968;2023-04-24T12:35:28;11.70;99.90
9975;DHT22;5028;50.974;4.968;2023-04-24T12:38:07;11.80;99.90
9975;DHT22;5028;50.974;4.968;2023-04-24T12:40:36;11.80;99.90
9975;DHT22;5028;50.974;4.968;2023-04-24T12:43:13;11.90;99.90
9975;DHT22;5028;50.974;4.968;2023-04-24T12:45:42;12.00;99.90
9975;DHT22;5028;50.974;4.968;2023-04-24T12:48:11;11.90;99.90
9975;DHT22;5028;50.974;4.968;2023-04-24T12:50:42;11.70;99.90
9975;DHT22;5028;50.974;4.968;2023-04-24T12:53:14;11.70;99.90
9975;DHT22;5028;50.974;4.968;2023-04-24T12:55:43;11.70;99.90
9975;DHT22;5028;50.974;4.968;2023-04-24T12:58:13;11.80;99.90
9975;DHT22;5028;50.974;4.968;2023-04-24T13:00:42;11.90;99.90
9975;DHT22;5028;50.974;4.968;2023-04-24T13:03:12;12.00;99.90
9975;DHT22;5028;50.974;4.968;2023-04-24T13:05:42;12.00;99.90
9975;DHT22;5028;50.974;4.968;2023-04-24T13:08:15;12.10;99.90
9975;DHT22;5028;50.974;4.968;2023-04-24T13:10:43;12.10;99.90
9975;DHT22;5028;50.974;4.968;2023-04-24T13:13:12;12.20;99.90
9975;DHT22;5028;50.974;4.968;2023-04-24T13:15:41;12.10;99.90
9975;DHT22;5028;50.974;4.968;2023-04-24T13:18:10;12.00;99.90
9975;DHT22;5028;50.974;4.968;2023-04-24T13:20:39;12.10;99.90
9975;DHT22;5028;50.974;4.968;2023-04-24T13:23:08;12.20;99.90
9975;DHT22;5028;50.974;4.968;2023-04-24T13:25:38;12.60;99.90
9975;DHT22;5028;50.974;4.968;2023-04-24T13:28:07;12.40;99.90
9975;DHT22;5028;50.974;4.968;2023-04-24T13:30:36;12.10;99.90
9975;DHT22;5028;50.974;4.968;2023-04-24T13:33:05;12.20;99.90
9975;DHT22;5028;50.974;4.968;2023-04-24T13:35:34;12.50;99.90
9975;DHT22;5028;50.974;4.968;2023-04-24T13:38:03;12.50;99.90
9975;DHT22;5028;50.974;4.968;2023-04-24T13:40:33;12.50;99.90
9975;DHT22;5028;50.974;4.968;2023-04-24T13:43:04;13.00;99.90
9975;DHT22;5028;50.974;4.968;2023-04-24T13:45:32;13.20;99.90
9975;DHT22;5028;50.974;4.968;2023-04-24T13:48:01;13.20;99.90
9975;DHT22;5028;50.974;4.968;2023-04-24T13:50:30;13.20;99.90
9975;DHT22;5028;50.974;4.968;2023-04-24T13:52:59;13.00;99.90
9975;DHT22;5028;50.974;4.968;2023-04-24T13:55:29;12.80;99.90
9975;DHT22;5028;50.974;4.968;2023-04-24T13:57:57;12.80;99.90
9975;DHT22;5028;50.974;4.968;2023-04-24T14:00:27;12.90;99.90
9975;DHT22;5028;50.974;4.968;2023-04-24T14:02:57;12.60;99.90
9975;DHT22;5028;50.974;4.968;2023-04-24T14:05:25;12.70;99.90
9975;DHT22;5028;50.974;4.968;2023-04-24T14:07:54;12.40;99.90
9975;DHT22;5028;50.974;4.968;2023-04-24T14:10:23;12.30;99.90
9975;DHT22;5028;50.974;4.968;2023-04-24T14:12:52;12.60;99.90
9975;DHT22;5028;50.974;4.968;2023-04-24T14:15:21;12.40;99.90
9975;DHT22;5028;50.974;4.968;2023-04-24T14:17:52;12.40;99.90
9975;DHT22;5028;50.974;4.968;2023-04-24T14:20:20;12.40;99.90
9975;DHT22;5028;50.974;4.968;2023-04-24T14:22:49;12.30;99.90
9975;DHT22;5028;50.974;4.968;2023-04-24T14:25:20;12.40;99.90
9975;DHT22;5028;50.974;4.968;2023-04-24T14:27:52;12.50;99.90
9975;DHT22;5028;50.974;4.968;2023-04-24T14:30:20;12.50;99.90
9975;DHT22;5028;50.974;4.968;2023-04-24T14:32:51;12.40;99.90
9975;DHT22;5028;50.974;4.968;2023-04-24T14:35:20;12.30;99.90
9975;DHT22;5028;50.974;4.968;2023-04-24T14:37:48;12.20;99.90
9975;DHT22;5028;50.974;4.968;2023-04-24T14:40:17;12.20;99.90
9975;DHT22;5028;50.974;4.968;2023-04-24T14:43:06;12.00;99.90
9975;DHT22;5028;50.974;4.968;2023-04-24T14:45:35;12.00;99.90
9975;DHT22;5028;50.974;4.968;2023-04-24T14:48:06;12.10;99.90
9975;DHT22;5028;50.974;4.968;2023-04-24T14:50:35;12.50;99.90
9975;DHT22;5028;50.974;4.968;2023-04-24T14:53:04;12.50;99.90
9975;DHT22;5028;50.974;4.968;2023-04-24T14:55:33;12.40;99.90
9975;DHT22;5028;50.974;4.968;2023-04-24T14:58:03;12.30;99.90
9975;DHT22;5028;50.974;4.968;2023-04-24T15:00:32;12.30;99.90
9975;DHT22;5028;50.974;4.968;2023-04-24T15:03:01;12.30;99.90
9975;DHT22;5028;50.974;4.968;2023-04-24T15:05:31;12.40;99.90
9975;DHT22;5028;50.974;4.968;2023-04-24T15:08:01;12.50;99.90
9975;DHT22;5028;50.974;4.968;2023-04-24T15:10:32;12.50;99.90
9975;DHT22;5028;50.974;4.968;2023-04-24T15:13:02;12.30;99.90
9975;DHT22;5028;50.974;4.968;2023-04-24T15:15:30;12.40;99.90
9975;DHT22;5028;50.974;4.968;2023-04-24T15:17:59;12.50;99.90
9975;DHT22;5028;50.974;4.968;2023-04-24T15:20:27;12.50;99.90
9975;DHT22;5028;50.974;4.968;2023-04-24T15:22:58;12.30;99.90
9975;DHT22;5028;50.974;4.968;2023-04-24T15:25:27;12.10;99.90
9975;DHT22;5028;50.974;4.968;2023-04-24T15:27:56;12.00;99.90
9975;DHT22;5028;50.974;4.968;2023-04-24T15:30:25;11.80;99.90
9975;DHT22;5028;50.974;4.968;2023-04-24T15:32:54;11.60;99.90
9975;DHT22;5028;50.974;4.968;2023-04-24T15:35:23;11.60;99.90
9975;DHT22;5028;50.974;4.968;2023-04-24T15:37:52;11.70;99.90
9975;DHT22;5028;50.974;4.968;2023-04-24T15:40:22;11.60;99.90
9975;DHT22;5028;50.974;4.968;2023-04-24T15:42:51;11.70;99.90
9975;DHT22;5028;50.974;4.968;2023-04-24T15:45:20;11.80;99.90
9975;DHT22;5028;50.974;4.968;2023-04-24T15:47:49;11.90;99.90
9975;DHT22;5028;50.974;4.968;2023-04-24T15:50:18;11.80;99.90
9975;DHT22;5028;50.974;4.968;2023-04-24T15:52:50;11.80;99.90
9975;DHT22;5028;50.974;4.968;2023-04-24T15:55:19;11.70;99.90
9975;DHT22;5028;50.974;4.968;2023-04-24T15:57:49;11.70;99.90
9975;DHT22;5028;50.974;4.968;2023-04-24T16:00:18;11.80;99.90
9975;DHT22;5028;50.974;4.968;2023-04-24T16:02:47;11.80;99.90
9975;DHT22;5028;50.974;4.968;2023-04-24T16:05:17;11.80;99.90
9975;DHT22;5028;50.974;4.968;2023-04-24T16:07:48;11.80;99.90
9975;DHT22;5028;50.974;4.968;2023-04-24T16:10:17;11.70;99.90
9975;DHT22;5028;50.974;4.968;2023-04-24T16:12:46;11.60;99.90
9975;DHT22;5028;50.974;4.968;2023-04-24T16:15:19;11.60;99.90
9975;DHT22;5028;50.974;4.968;2023-04-24T16:17:49;11.60;99.90
9975;DHT22;5028;50.974;4.968;2023-04-24T16:20:17;11.60;99.90
9975;DHT22;5028;50.974;4.968;2023-04-24T16:22:46;11.60;99.90
9975;DHT22;5028;50.974;4.968;2023-04-24T16:25:16;11.60;99.90
9975;DHT22;5028;50.974;4.968;2023-04-24T16:27:44;11.60;99.90